Alice, ND

8:42 PM CST on February 23, 2017 (GMT -0600)
Home of the Absaraka Crows | | Change Station
Active Advisory: Flood Warning

Elev 1066 ft 46.98 °N, 97.39 °W | Updated 3 seconds ago

Mostly Cloudy
Mostly Cloudy
22.8 °F
Feels Like 10 °F
N
15.2
Wind Variable Wind from North
Gusts 16.8 mph

Today
High -- | Low -- °F
--% Chance of Precip.
Yesterday
High -- | Low -- °F
Precip. -- in
Pressure 30.08 in
Visibility 10.0 miles
Clouds Mostly Cloudy 2000 ft
Windchill 10 °F
Dew Point 19 °F
Humidity 84%
Rainfall 0.06 in
Snow Depth Not available.
7:20 AM 6:07 PM
Waning Crescent, 7% visible
METAR KBAC 240235Z AUTO 03014G21KT 10SM BKN020 M06/M07 A3008 RMK AO2
Pressure 30.08 in
Visibility 10.0 miles
Clouds Mostly Cloudy 2000 ft
Windchill 10 °F
Dew Point 19 °F
Humidity 84%
Rainfall 0.06 in
Snow Depth Not available.
7:20 AM 6:07 PM
Waning Crescent, 7% visible
METAR KBAC 240235Z AUTO 03014G21KT 10SM BKN020 M06/M07 A3008 RMK AO2

Get Your Daily Forecast Email!

Thanks for signing up!

Be on the lookout for a verification email in your inbox.

You'll start receiving the daily forecast at 8 AM.

×

10-Day Weather Forecast

Almanac

Astronomy

Feb. 23, 2017 Rise Set
Actual Time
Civil Twilight
Nautical Twilight
Astronomical Twilight
Moon
Length of Visible Light
Length of Day
Tomorrow will be .
, % of the Moon is Illuminated

Today's Extremes

State Highs State Lows

Community

WunderPhotos

Upload Photos

1,962,540 photos uploaded!

WunderBlog® & News

Nearby

Air Quality

  Air Quality AQ Index Pollutant
Not available.

Snow Depth

Station Depth Elevation

Earthquake Activity

City Distance Mag. Time & Date
Minimum magnitude displayed is 2.5.

Coastal Water Temperatures

Place Temperature

Stations

Nearby Weather Stations

Station Location Temp. Windchill Dew Point Humidity Wind Precip. Elev Updated Type
                   

Watches & Warnings

Flood Warning
Issued: 11:09 AM CST Feb. 23, 2017 – National Weather Service

The Flood Warning continues for...
* ... Fargo... on the Red River.
* Until Thursday March 2... or until the warning is cancelled.
* At 9:15 am Thursday the stage was 21.6 feet.
* Minor flooding is occurring and during the next 7 days... minor
flooding is forecast.
* Minor flood stage is 18.0 feet.
* Forecast... the river will rise to a crest near 22.0 feet sometime
Friday mid-morning. The river will fall below flood stage Tuesday
evening.
* The river is forecast to crest at 22.0 on Friday during this 7-day
period.
* Impact statement(s) - at 22.0 feet, Fargo... North Broadway bridge
is
closed.


Daily 7am CDT/6am CST forecast stage in feet:

date Fri Sat sun Mon Tue Wed Thu
(month/day) 02/24 02/25 02/26 02/27 02/28 03/01 03/02

Red River
Fargo 22.0 21.8 21.2 20.1 18.8 17.6 17.0


Lat... Lon 4715 9673 4724 9683 4724 9694 4676 9689 4677 9671